• Join FlightAware (Why Join?)
  • Login
  • US Flag 
02:55AM EST


 

Airport Tracker/Info


-or-


 

Live Flight TrackerFlight Track Log ✈ AWE131 ✈ 18-Apr-2013 ✈ KPHX - KLGB

Flight Track Log - Related Links

Times and Time Zones

All times are in EDT time to prevent confusion due to time zone crossing. See the AWE131 flight status page for this flight to view local times or setup timezone preferences in your user account.

Time Position Orientation Groundspeed Altitude Reporting Facility
EDT Latitude Longitude Course Direction KTS MPH feet Rate Location/Type
11:21PM 33.4333 -112.0167 273° West 107 123 1,900  Level Phoenix TRACON
11:21PM 33.4167 -112.0500 239° Southwest 169 194 2,900 1,920 Climbing Phoenix TRACON
11:22PM 33.4000 -112.1167 253° West 222 255 5,100 2,460 Climbing Phoenix TRACON
11:23PM 33.4333 -112.3465 270° West  Level FlightAware Approximate
11:23PM 33.3833 -112.2167 259° West 284 327 7,900  Level Phoenix TRACON
11:24PM 33.4366 -112.4619 273° West  Level FlightAware Approximate
11:24PM 33.3833 -112.3000 270° West 292 336 10,900  Level Phoenix TRACON
11:25PM 33.4413 -112.5773 273° West  Level FlightAware Approximate
11:25PM 33.4000 -112.4167 280° West 353 406 12,900  Level Phoenix TRACON
11:26PM 33.4458 -112.6926 273° West  Level FlightAware Approximate
11:26PM 33.3953 -112.4328 251° West 339 390 13,500  Level Albuquerque Center
11:27PM 33.4128 -112.5494 280° West 353 406 16,100 2,400 Climbing Albuquerque Center
11:28PM 33.4306 -112.6719 280° West 364 419 18,500 2,280 Climbing Albuquerque Center
11:29PM 33.4492 -112.7958 280° West 374 430 20,800 2,040 Climbing Albuquerque Center
11:30PM 33.4717 -112.9206 282° West 380 437 22,700 1,920 Climbing Albuquerque Center
11:31PM 33.5028 -113.0758 284° West 391 450 24,800 1,740 Climbing Albuquerque Center
11:32PM 33.5272 -113.2069 283° West 397 457 26,300 1,440 Climbing Albuquerque Center
11:33PM 33.5528 -113.3425 283° West 406 467 27,800 1,380 Climbing Albuquerque Center
11:34PM 33.5786 -113.4764 283° West 413 475 29,200 1,740 Climbing Albuquerque Center
11:35PM 33.6033 -113.6114 282° West 416 479 31,500 1,320 Climbing Albuquerque Center
11:36PM 33.6289 -113.7428 283° West 406 467 32,000 240 Climbing Albuquerque Center
11:37PM 33.6517 -113.8728 282° West 400 460 32,000  Level Albuquerque Center
11:38PM 33.6767 -114.0053 283° West 405 466 32,000  Level Albuquerque Center
11:39PM 33.7003 -114.1369 282° West 404 465 32,000  Level Albuquerque Center
11:40PM 33.7278 -114.2922 282° West 407 468 32,000 -60 Level Albuquerque Center
11:41PM 33.7517 -114.4244 282° West 407 468 31,900 -60 Descending Albuquerque Center
11:42PM 33.7747 -114.5556 282° West 404 465 31,900  Level Albuquerque Center
11:43PM 33.7833 -114.7053 274° West 410 472 32,000  Climbing Los Angeles Center
11:44PM 33.7922 -114.8408 275° West 409 471 31,900  Descending Los Angeles Center
11:45PM 33.8014 -115.0025 274° West 406 467 32,000  Climbing Los Angeles Center
11:46PM 33.8081 -115.1375 273° West 406 467 32,000 -300 Level Los Angeles Center
11:47PM 33.8144 -115.2708 273° West 403 464 31,400 -780 Descending Los Angeles Center
11:48PM 33.8214 -115.4039 274° West 400 460 30,500 -960 Descending Los Angeles Center
11:49PM 33.8281 -115.5375 273° West 401 461 29,500 -1,020 Descending Los Angeles Center
11:50PM 33.8344 -115.6686 273° West 396 456 28,500 -1,020 Descending Los Angeles Center
11:51PM 33.8403 -115.7989 273° West 393 452 27,500 -1,020 Descending Los Angeles Center
11:53PM 33.8478 -115.9544 273° West 390 449 26,300 -1,080 Descending Los Angeles Center
11:54PM 33.8544 -116.1067 273° West 382 440 25,100 -1,080 Descending Los Angeles Center
11:55PM 33.8603 -116.2303 273° West 373 429 24,100 -600 Descending Los Angeles Center
11:56PM 33.8664 -116.3528 273° West 371 427 23,900 -1,380 Descending Los Angeles Center
11:57PM 33.8708 -116.4750 273° West 369 425 21,300 -2,820 Descending Los Angeles Center
11:58PM 33.8778 -116.5928 274° West 358 412 18,200 -3,060 Descending Los Angeles Center
11:59PM 33.8842 -116.7306 273° West 347 399 15,000 -2,220 Descending Los Angeles Center
12:00AM 33.8889 -116.8406 273° West 334 384 13,700 -1,680 Descending Los Angeles Center
12:01AM 33.8742 -116.9517 261° West 337 388 11,600 -1,500 Descending Los Angeles Center
12:02AM 33.8581 -117.0569 260° West 323 372 10,700 -1,200 Descending Los Angeles Center
12:03AM 33.8431 -117.1625 260° West 298 343 9,200 -1,260 Descending Los Angeles Center
12:04AM 33.8286 -117.2617 260° West 300 345 8,200 -600 Descending Los Angeles Center
12:05AM 33.8142 -117.3606 260° West 301 346 8,000 -120 Descending Los Angeles Center
12:06AM 33.7992 -117.4594 260° West 301 346 8,000  Level Los Angeles Center
12:07AM 33.7858 -117.5556 261° West 294 338 8,000  Level Los Angeles Center
12:08AM 33.7619 -117.6447 252° West 284 327 8,000 -600 Level Los Angeles Center
12:09AM 33.7333 -117.7167 244° Southwest 279 321 7,000 -1,320 Descending Southern California TRACON
12:10AM 33.7000 -117.8000 244° Southwest 270 311 5,800 -1,200 Descending Southern California TRACON
12:11AM 33.6667 -117.8833 244° Southwest 254 292 4,700 -900 Descending Southern California TRACON
12:12AM 33.6833 -117.9500 287° West 222 255 4,000 -840 Descending Southern California TRACON
12:13AM 33.7000 -118.0167 287° West 199 229 3,100 -960 Descending Southern California TRACON
12:14AM 33.7333 -118.0500 320° Northwest 167 192 2,100 -900 Descending Southern California TRACON
12:15AM 33.7667 -118.0833 320° Northwest 137 158 1,400 -720 Descending Southern California TRACON
12:16AM 33.7833 -118.1167 301° West 118 136 700 -600 Descending Southern California TRACON
12:17AM 33.8167 -118.1500 320° Northwest 123 142 200 -540 Descending Southern California TRACON
12:19AM 33.8177 -118.1517 292° West  Level Estimated
12:26AM 33.8167 -118.1500 292° West  Level FlightAware Approximate